sensor_id;sensor_type;location;lat;lon;timestamp;temperature;humidity
6146;DHT22;3104;50.348;7.620;2023-06-10T00:00:16;20.80;1.00
6146;DHT22;3104;50.348;7.620;2023-06-10T00:02:42;20.70;1.00
6146;DHT22;3104;50.348;7.620;2023-06-10T00:05:09;20.60;1.00
6146;DHT22;3104;50.348;7.620;2023-06-10T00:07:35;20.50;20.60
6146;DHT22;3104;50.348;7.620;2023-06-10T00:10:07;20.50;48.70
6146;DHT22;3104;50.348;7.620;2023-06-10T00:12:32;20.40;99.90
6146;DHT22;3104;50.348;7.620;2023-06-10T00:15:03;20.40;99.90
6146;DHT22;3104;50.348;7.620;2023-06-10T00:17:29;20.30;99.90
6146;DHT22;3104;50.348;7.620;2023-06-10T00:19:55;20.20;99.90
6146;DHT22;3104;50.348;7.620;2023-06-10T00:22:21;20.20;99.90
6146;DHT22;3104;50.348;7.620;2023-06-10T00:24:47;20.20;99.90
6146;DHT22;3104;50.348;7.620;2023-06-10T00:27:13;20.10;99.90
6146;DHT22;3104;50.348;7.620;2023-06-10T00:29:39;20.00;1.00
6146;DHT22;3104;50.348;7.620;2023-06-10T00:32:04;19.90;1.00
6146;DHT22;3104;50.348;7.620;2023-06-10T00:34:30;19.90;1.00
6146;DHT22;3104;50.348;7.620;2023-06-10T00:36:57;19.90;1.00
6146;DHT22;3104;50.348;7.620;2023-06-10T00:39:23;19.90;1.00
6146;DHT22;3104;50.348;7.620;2023-06-10T00:41:48;19.80;1.00
6146;DHT22;3104;50.348;7.620;2023-06-10T00:44:15;19.80;1.00
6146;DHT22;3104;50.348;7.620;2023-06-10T00:46:41;19.80;1.00
6146;DHT22;3104;50.348;7.620;2023-06-10T00:49:06;19.80;1.00
6146;DHT22;3104;50.348;7.620;2023-06-10T00:51:33;19.70;1.00
6146;DHT22;3104;50.348;7.620;2023-06-10T00:53:59;19.70;1.00
6146;DHT22;3104;50.348;7.620;2023-06-10T00:56:25;19.80;1.00
6146;DHT22;3104;50.348;7.620;2023-06-10T00:58:51;19.70;1.00
6146;DHT22;3104;50.348;7.620;2023-06-10T01:01:16;19.70;1.00
6146;DHT22;3104;50.348;7.620;2023-06-10T01:03:43;19.80;1.00
6146;DHT22;3104;50.348;7.620;2023-06-10T01:09:17;19.80;1.00
6146;DHT22;3104;50.348;7.620;2023-06-10T01:11:48;19.80;1.00
6146;DHT22;3104;50.348;7.620;2023-06-10T01:14:15;19.80;1.00
6146;DHT22;3104;50.348;7.620;2023-06-10T01:16:42;19.70;1.00
6146;DHT22;3104;50.348;7.620;2023-06-10T01:19:11;19.70;1.00
6146;DHT22;3104;50.348;7.620;2023-06-10T01:21:38;19.60;1.00
6146;DHT22;3104;50.348;7.620;2023-06-10T01:24:04;19.60;1.00
6146;DHT22;3104;50.348;7.620;2023-06-10T01:26:34;19.60;1.00
6146;DHT22;3104;50.348;7.620;2023-06-10T01:29:03;19.60;1.00
6146;DHT22;3104;50.348;7.620;2023-06-10T01:31:43;19.60;1.00
6146;DHT22;3104;50.348;7.620;2023-06-10T01:34:14;19.50;1.00
6146;DHT22;3104;50.348;7.620;2023-06-10T01:36:45;19.40;1.00
6146;DHT22;3104;50.348;7.620;2023-06-10T01:39:14;19.50;1.00
6146;DHT22;3104;50.348;7.620;2023-06-10T01:41:40;19.40;1.00
6146;DHT22;3104;50.348;7.620;2023-06-10T01:44:05;19.50;1.00
6146;DHT22;3104;50.348;7.620;2023-06-10T01:46:31;19.50;1.00
6146;DHT22;3104;50.348;7.620;2023-06-10T01:48:57;19.40;1.00
6146;DHT22;3104;50.348;7.620;2023-06-10T01:51:22;19.50;1.00
6146;DHT22;3104;50.348;7.620;2023-06-10T01:53:48;19.50;1.00
6146;DHT22;3104;50.348;7.620;2023-06-10T01:56:14;19.50;1.00
6146;DHT22;3104;50.348;7.620;2023-06-10T01:58:45;19.50;1.00
6146;DHT22;3104;50.348;7.620;2023-06-10T02:01:11;19.50;1.00
6146;DHT22;3104;50.348;7.620;2023-06-10T02:03:36;19.50;1.00
6146;DHT22;3104;50.348;7.620;2023-06-10T02:06:02;19.50;1.00
6146;DHT22;3104;50.348;7.620;2023-06-10T02:08:28;19.50;1.00
6146;DHT22;3104;50.348;7.620;2023-06-10T02:10:53;19.50;1.00
6146;DHT22;3104;50.348;7.620;2023-06-10T02:13:19;19.40;1.00
6146;DHT22;3104;50.348;7.620;2023-06-10T02:15:45;19.50;1.00
6146;DHT22;3104;50.348;7.620;2023-06-10T02:18:10;19.40;1.00
6146;DHT22;3104;50.348;7.620;2023-06-10T02:20:37;19.40;1.00
6146;DHT22;3104;50.348;7.620;2023-06-10T02:23:03;19.40;1.00
6146;DHT22;3104;50.348;7.620;2023-06-10T02:25:29;19.40;1.00
6146;DHT22;3104;50.348;7.620;2023-06-10T02:27:54;19.50;1.00
6146;DHT22;3104;50.348;7.620;2023-06-10T02:30:20;19.50;1.00
6146;DHT22;3104;50.348;7.620;2023-06-10T02:32:46;19.50;1.00
6146;DHT22;3104;50.348;7.620;2023-06-10T02:35:14;19.50;1.00
6146;DHT22;3104;50.348;7.620;2023-06-10T02:37:39;19.40;1.00
6146;DHT22;3104;50.348;7.620;2023-06-10T02:40:06;19.40;1.00
6146;DHT22;3104;50.348;7.620;2023-06-10T02:42:32;19.40;1.00
6146;DHT22;3104;50.348;7.620;2023-06-10T02:44:58;19.40;1.00
6146;DHT22;3104;50.348;7.620;2023-06-10T02:47:23;19.40;1.00
6146;DHT22;3104;50.348;7.620;2023-06-10T02:49:49;19.40;1.00
6146;DHT22;3104;50.348;7.620;2023-06-10T02:52:14;19.40;1.00
6146;DHT22;3104;50.348;7.620;2023-06-10T02:54:40;19.40;1.00
6146;DHT22;3104;50.348;7.620;2023-06-10T02:57:05;19.40;1.00
6146;DHT22;3104;50.348;7.620;2023-06-10T02:59:31;19.40;99.90
6146;DHT22;3104;50.348;7.620;2023-06-10T03:01:57;19.40;99.90
6146;DHT22;3104;50.348;7.620;2023-06-10T03:04:22;19.50;99.90
6146;DHT22;3104;50.348;7.620;2023-06-10T03:06:49;19.40;99.90
6146;DHT22;3104;50.348;7.620;2023-06-10T03:09:14;19.40;99.90
6146;DHT22;3104;50.348;7.620;2023-06-10T03:11:40;19.40;99.90
6146;DHT22;3104;50.348;7.620;2023-06-10T03:14:05;19.50;99.90
6146;DHT22;3104;50.348;7.620;2023-06-10T03:16:31;19.50;99.90
6146;DHT22;3104;50.348;7.620;2023-06-10T03:18:57;19.50;99.90
6146;DHT22;3104;50.348;7.620;2023-06-10T03:21:23;19.50;99.90
6146;DHT22;3104;50.348;7.620;2023-06-10T03:23:48;19.50;53.10
6146;DHT22;3104;50.348;7.620;2023-06-10T03:26:14;19.50;64.40
6146;DHT22;3104;50.348;7.620;2023-06-10T03:28:41;19.50;46.70
6146;DHT22;3104;50.348;7.620;2023-06-10T03:31:06;19.50;22.80
6146;DHT22;3104;50.348;7.620;2023-06-10T03:33:32;19.50;32.00
6146;DHT22;3104;50.348;7.620;2023-06-10T03:35:58;19.50;13.10
6146;DHT22;3104;50.348;7.620;2023-06-10T03:38:24;19.50;29.10
6146;DHT22;3104;50.348;7.620;2023-06-10T03:40:49;19.50;15.20
6146;DHT22;3104;50.348;7.620;2023-06-10T03:43:15;19.40;74.10
6146;DHT22;3104;50.348;7.620;2023-06-10T03:45:40;19.40;69.20
6146;DHT22;3104;50.348;7.620;2023-06-10T03:48:07;19.40;43.70
6146;DHT22;3104;50.348;7.620;2023-06-10T03:50:34;19.40;41.80
6146;DHT22;3104;50.348;7.620;2023-06-10T03:53:00;19.40;95.10
6146;DHT22;3104;50.348;7.620;2023-06-10T03:55:25;19.40;99.90
6146;DHT22;3104;50.348;7.620;2023-06-10T03:57:51;19.60;50.50
6146;DHT22;3104;50.348;7.620;2023-06-10T04:00:17;19.70;1.00
6146;DHT22;3104;50.348;7.620;2023-06-10T04:02:43;19.90;1.00
6146;DHT22;3104;50.348;7.620;2023-06-10T04:05:13;20.20;1.00
6146;DHT22;3104;50.348;7.620;2023-06-10T04:07:39;20.40;1.00
6146;DHT22;3104;50.348;7.620;2023-06-10T04:10:10;20.30;99.90
6146;DHT22;3104;50.348;7.620;2023-06-10T04:12:36;20.50;99.90
6146;DHT22;3104;50.348;7.620;2023-06-10T04:15:03;20.70;44.40
6146;DHT22;3104;50.348;7.620;2023-06-10T04:17:29;20.80;28.00
6146;DHT22;3104;50.348;7.620;2023-06-10T04:19:54;20.70;28.10
6146;DHT22;3104;50.348;7.620;2023-06-10T04:22:21;21.00;80.20
6146;DHT22;3104;50.348;7.620;2023-06-10T04:24:46;21.10;57.70
6146;DHT22;3104;50.348;7.620;2023-06-10T04:27:12;21.30;1.00
6146;DHT22;3104;50.348;7.620;2023-06-10T04:29:38;21.40;14.90
6146;DHT22;3104;50.348;7.620;2023-06-10T04:32:04;21.40;1.00
6146;DHT22;3104;50.348;7.620;2023-06-10T04:34:31;21.70;1.00
6146;DHT22;3104;50.348;7.620;2023-06-10T04:36:57;21.90;1.00
6146;DHT22;3104;50.348;7.620;2023-06-10T04:39:23;21.90;1.00
6146;DHT22;3104;50.348;7.620;2023-06-10T04:41:48;22.20;1.00
6146;DHT22;3104;50.348;7.620;2023-06-10T04:44:14;21.90;1.00
6146;DHT22;3104;50.348;7.620;2023-06-10T04:46:40;22.00;1.00
6146;DHT22;3104;50.348;7.620;2023-06-10T04:49:05;21.90;1.00
6146;DHT22;3104;50.348;7.620;2023-06-10T04:51:31;21.30;99.90
6146;DHT22;3104;50.348;7.620;2023-06-10T04:54:00;21.20;99.90
6146;DHT22;3104;50.348;7.620;2023-06-10T04:56:29;21.20;33.40
6146;DHT22;3104;50.348;7.620;2023-06-10T04:58:58;21.30;1.00
6146;DHT22;3104;50.348;7.620;2023-06-10T05:01:24;21.20;1.00
6146;DHT22;3104;50.348;7.620;2023-06-10T05:03:50;21.40;1.00
6146;DHT22;3104;50.348;7.620;2023-06-10T05:06:16;21.30;1.00
6146;DHT22;3104;50.348;7.620;2023-06-10T05:08:41;21.40;1.00
6146;DHT22;3104;50.348;7.620;2023-06-10T05:11:07;21.30;1.00
6146;DHT22;3104;50.348;7.620;2023-06-10T05:13:33;21.40;1.00
6146;DHT22;3104;50.348;7.620;2023-06-10T05:15:58;21.40;1.00
6146;DHT22;3104;50.348;7.620;2023-06-10T05:18:24;21.30;1.00
6146;DHT22;3104;50.348;7.620;2023-06-10T05:20:50;21.30;1.00
6146;DHT22;3104;50.348;7.620;2023-06-10T05:23:15;21.20;1.00
6146;DHT22;3104;50.348;7.620;2023-06-10T05:25:41;21.10;1.00
6146;DHT22;3104;50.348;7.620;2023-06-10T05:28:07;21.10;1.00
6146;DHT22;3104;50.348;7.620;2023-06-10T05:30:35;21.10;1.00
6146;DHT22;3104;50.348;7.620;2023-06-10T05:33:03;21.20;1.00
6146;DHT22;3104;50.348;7.620;2023-06-10T05:35:28;21.20;1.00
6146;DHT22;3104;50.348;7.620;2023-06-10T05:37:54;21.10;1.00
6146;DHT22;3104;50.348;7.620;2023-06-10T05:40:20;21.20;1.00
6146;DHT22;3104;50.348;7.620;2023-06-10T05:42:45;21.30;1.00
6146;DHT22;3104;50.348;7.620;2023-06-10T05:45:11;21.40;1.00
6146;DHT22;3104;50.348;7.620;2023-06-10T05:47:36;21.30;1.00
6146;DHT22;3104;50.348;7.620;2023-06-10T05:50:02;21.20;1.00
6146;DHT22;3104;50.348;7.620;2023-06-10T05:52:35;21.10;1.00
6146;DHT22;3104;50.348;7.620;2023-06-10T05:55:04;21.30;1.00
6146;DHT22;3104;50.348;7.620;2023-06-10T05:57:30;21.30;1.00
6146;DHT22;3104;50.348;7.620;2023-06-10T05:59:56;21.10;1.00
6146;DHT22;3104;50.348;7.620;2023-06-10T06:02:21;21.10;1.00
6146;DHT22;3104;50.348;7.620;2023-06-10T06:04:47;21.20;1.00
6146;DHT22;3104;50.348;7.620;2023-06-10T06:07:12;21.30;1.00
6146;DHT22;3104;50.348;7.620;2023-06-10T06:09:38;21.30;1.00
6146;DHT22;3104;50.348;7.620;2023-06-10T06:12:04;21.30;1.00
6146;DHT22;3104;50.348;7.620;2023-06-10T06:14:32;21.20;1.00
6146;DHT22;3104;50.348;7.620;2023-06-10T06:16:57;21.30;1.00
6146;DHT22;3104;50.348;7.620;2023-06-10T06:19:23;21.40;1.00
6146;DHT22;3104;50.348;7.620;2023-06-10T06:21:49;21.50;1.00
6146;DHT22;3104;50.348;7.620;2023-06-10T06:24:16;21.60;1.00
6146;DHT22;3104;50.348;7.620;2023-06-10T06:26:42;21.70;1.00
6146;DHT22;3104;50.348;7.620;2023-06-10T06:29:07;21.70;1.00
6146;DHT22;3104;50.348;7.620;2023-06-10T06:31:33;21.80;1.00
6146;DHT22;3104;50.348;7.620;2023-06-10T06:33:59;21.80;1.00
6146;DHT22;3104;50.348;7.620;2023-06-10T06:36:24;21.90;1.00
6146;DHT22;3104;50.348;7.620;2023-06-10T06:38:50;21.90;1.00
6146;DHT22;3104;50.348;7.620;2023-06-10T06:41:15;21.90;1.00
6146;DHT22;3104;50.348;7.620;2023-06-10T06:43:41;21.80;1.00
6146;DHT22;3104;50.348;7.620;2023-06-10T06:46:08;21.80;1.00
6146;DHT22;3104;50.348;7.620;2023-06-10T06:48:34;21.90;1.00
6146;DHT22;3104;50.348;7.620;2023-06-10T06:50:59;22.10;1.00
6146;DHT22;3104;50.348;7.620;2023-06-10T06:53:25;22.10;1.00
6146;DHT22;3104;50.348;7.620;2023-06-10T06:55:51;22.20;1.00
6146;DHT22;3104;50.348;7.620;2023-06-10T06:58:16;22.30;1.00
6146;DHT22;3104;50.348;7.620;2023-06-10T07:00:42;22.50;1.00
6146;DHT22;3104;50.348;7.620;2023-06-10T07:03:08;22.60;1.00
6146;DHT22;3104;50.348;7.620;2023-06-10T07:05:33;22.60;1.00
6146;DHT22;3104;50.348;7.620;2023-06-10T07:07:59;22.70;1.00
6146;DHT22;3104;50.348;7.620;2023-06-10T07:10:25;22.70;1.00
6146;DHT22;3104;50.348;7.620;2023-06-10T07:12:51;22.80;1.00
6146;DHT22;3104;50.348;7.620;2023-06-10T07:15:17;22.70;1.00
6146;DHT22;3104;50.348;7.620;2023-06-10T07:17:43;22.70;1.00
6146;DHT22;3104;50.348;7.620;2023-06-10T07:20:09;22.70;1.00
6146;DHT22;3104;50.348;7.620;2023-06-10T07:22:35;22.80;1.00
6146;DHT22;3104;50.348;7.620;2023-06-10T07:25:00;22.90;1.00
6146;DHT22;3104;50.348;7.620;2023-06-10T07:27:26;22.90;1.00
6146;DHT22;3104;50.348;7.620;2023-06-10T07:29:52;23.00;1.00
6146;DHT22;3104;50.348;7.620;2023-06-10T07:32:18;23.00;1.00
6146;DHT22;3104;50.348;7.620;2023-06-10T07:34:46;23.10;1.00
6146;DHT22;3104;50.348;7.620;2023-06-10T07:37:11;23.30;1.00
6146;DHT22;3104;50.348;7.620;2023-06-10T07:39:37;23.40;1.00
6146;DHT22;3104;50.348;7.620;2023-06-10T07:42:02;23.40;1.00
6146;DHT22;3104;50.348;7.620;2023-06-10T07:44:28;23.70;1.00
6146;DHT22;3104;50.348;7.620;2023-06-10T07:46:53;23.60;1.00
6146;DHT22;3104;50.348;7.620;2023-06-10T07:49:19;23.60;1.00
6146;DHT22;3104;50.348;7.620;2023-06-10T07:51:45;24.00;1.00
6146;DHT22;3104;50.348;7.620;2023-06-10T07:54:10;24.20;1.00
6146;DHT22;3104;50.348;7.620;2023-06-10T07:56:38;24.40;1.00
6146;DHT22;3104;50.348;7.620;2023-06-10T07:59:03;24.70;1.00
6146;DHT22;3104;50.348;7.620;2023-06-10T08:01:29;24.80;1.00
6146;DHT22;3104;50.348;7.620;2023-06-10T08:03:55;24.90;1.00
6146;DHT22;3104;50.348;7.620;2023-06-10T08:06:21;25.30;1.00
6146;DHT22;3104;50.348;7.620;2023-06-10T08:08:46;25.50;1.00
6146;DHT22;3104;50.348;7.620;2023-06-10T08:11:12;25.90;1.00
6146;DHT22;3104;50.348;7.620;2023-06-10T08:13:38;25.90;1.00
6146;DHT22;3104;50.348;7.620;2023-06-10T08:16:04;26.50;1.00
6146;DHT22;3104;50.348;7.620;2023-06-10T08:18:29;26.60;1.00
6146;DHT22;3104;50.348;7.620;2023-06-10T08:20:55;25.90;1.00
6146;DHT22;3104;50.348;7.620;2023-06-10T08:23:21;25.70;1.00
6146;DHT22;3104;50.348;7.620;2023-06-10T08:25:46;25.70;1.00
6146;DHT22;3104;50.348;7.620;2023-06-10T08:28:12;26.20;1.00
6146;DHT22;3104;50.348;7.620;2023-06-10T08:30:37;26.30;1.00
6146;DHT22;3104;50.348;7.620;2023-06-10T08:33:03;26.20;1.00
6146;DHT22;3104;50.348;7.620;2023-06-10T08:35:29;26.90;1.00
6146;DHT22;3104;50.348;7.620;2023-06-10T08:37:54;27.60;1.00
6146;DHT22;3104;50.348;7.620;2023-06-10T08:40:20;28.40;1.00
6146;DHT22;3104;50.348;7.620;2023-06-10T08:42:49;28.30;1.00
6146;DHT22;3104;50.348;7.620;2023-06-10T08:45:18;28.70;1.00
6146;DHT22;3104;50.348;7.620;2023-06-10T08:47:49;29.00;1.00
6146;DHT22;3104;50.348;7.620;2023-06-10T08:50:17;29.10;1.00
6146;DHT22;3104;50.348;7.620;2023-06-10T08:52:44;29.30;1.00
6146;DHT22;3104;50.348;7.620;2023-06-10T08:55:25;29.10;1.00
6146;DHT22;3104;50.348;7.620;2023-06-10T08:57:52;29.10;1.00
6146;DHT22;3104;50.348;7.620;2023-06-10T09:00:19;29.10;1.00
6146;DHT22;3104;50.348;7.620;2023-06-10T09:02:45;29.40;1.00
6146;DHT22;3104;50.348;7.620;2023-06-10T09:05:12;29.20;99.90
6146;DHT22;3104;50.348;7.620;2023-06-10T09:07:38;29.70;1.00
6146;DHT22;3104;50.348;7.620;2023-06-10T09:10:05;30.20;1.00
6146;DHT22;3104;50.348;7.620;2023-06-10T09:12:33;30.30;99.90
6146;DHT22;3104;50.348;7.620;2023-06-10T09:14:59;29.10;99.90
6146;DHT22;3104;50.348;7.620;2023-06-10T09:17:27;29.50;99.90
6146;DHT22;3104;50.348;7.620;2023-06-10T09:19:52;29.70;99.90
6146;DHT22;3104;50.348;7.620;2023-06-10T09:22:21;29.90;99.90
6146;DHT22;3104;50.348;7.620;2023-06-10T09:24:47;30.20;99.90
6146;DHT22;3104;50.348;7.620;2023-06-10T09:27:13;30.60;99.90
6146;DHT22;3104;50.348;7.620;2023-06-10T09:32:18;30.60;99.90
6146;DHT22;3104;50.348;7.620;2023-06-10T09:34:44;31.10;99.90
6146;DHT22;3104;50.348;7.620;2023-06-10T09:37:10;31.20;99.90
6146;DHT22;3104;50.348;7.620;2023-06-10T09:39:38;31.30;99.90
6146;DHT22;3104;50.348;7.620;2023-06-10T09:42:17;31.70;99.90
6146;DHT22;3104;50.348;7.620;2023-06-10T09:45:09;31.70;99.90
6146;DHT22;3104;50.348;7.620;2023-06-10T09:47:34;32.10;99.90
6146;DHT22;3104;50.348;7.620;2023-06-10T09:50:00;32.20;99.90
6146;DHT22;3104;50.348;7.620;2023-06-10T09:52:28;31.70;99.90
6146;DHT22;3104;50.348;7.620;2023-06-10T09:54:59;31.30;99.90
6146;DHT22;3104;50.348;7.620;2023-06-10T09:57:25;31.00;99.90
6146;DHT22;3104;50.348;7.620;2023-06-10T09:59:54;31.10;99.90
6146;DHT22;3104;50.348;7.620;2023-06-10T10:02:20;31.60;99.90
6146;DHT22;3104;50.348;7.620;2023-06-10T10:04:45;31.70;99.90
6146;DHT22;3104;50.348;7.620;2023-06-10T10:07:11;31.90;99.90
6146;DHT22;3104;50.348;7.620;2023-06-10T10:09:38;31.30;99.90
6146;DHT22;3104;50.348;7.620;2023-06-10T10:12:09;31.80;99.90
6146;DHT22;3104;50.348;7.620;2023-06-10T10:14:36;30.20;99.90
6146;DHT22;3104;50.348;7.620;2023-06-10T10:17:05;29.40;99.90
6146;DHT22;3104;50.348;7.620;2023-06-10T10:19:37;29.60;99.90
6146;DHT22;3104;50.348;7.620;2023-06-10T10:22:08;29.40;99.90
6146;DHT22;3104;50.348;7.620;2023-06-10T10:24:44;30.80;99.90
6146;DHT22;3104;50.348;7.620;2023-06-10T10:27:18;31.60;99.90
6146;DHT22;3104;50.348;7.620;2023-06-10T10:29:46;30.30;99.90
6146;DHT22;3104;50.348;7.620;2023-06-10T10:32:13;30.70;99.90
6146;DHT22;3104;50.348;7.620;2023-06-10T10:34:57;31.40;99.90
6146;DHT22;3104;50.348;7.620;2023-06-10T10:37:26;30.80;99.90
6146;DHT22;3104;50.348;7.620;2023-06-10T10:39:52;31.00;99.90
6146;DHT22;3104;50.348;7.620;2023-06-10T10:42:18;30.10;99.90
6146;DHT22;3104;50.348;7.620;2023-06-10T10:44:45;30.20;99.90
6146;DHT22;3104;50.348;7.620;2023-06-10T10:47:11;30.30;99.90
6146;DHT22;3104;50.348;7.620;2023-06-10T10:49:37;30.70;99.90
6146;DHT22;3104;50.348;7.620;2023-06-10T10:52:03;30.20;99.90
6146;DHT22;3104;50.348;7.620;2023-06-10T10:54:34;29.90;99.90
6146;DHT22;3104;50.348;7.620;2023-06-10T10:59:54;29.30;99.90
6146;DHT22;3104;50.348;7.620;2023-06-10T11:02:35;29.90;99.90
6146;DHT22;3104;50.348;7.620;2023-06-10T11:05:04;30.50;99.90
6146;DHT22;3104;50.348;7.620;2023-06-10T11:07:31;30.50;99.90
6146;DHT22;3104;50.348;7.620;2023-06-10T11:09:59;30.90;99.90
6146;DHT22;3104;50.348;7.620;2023-06-10T11:15:44;30.10;99.90
6146;DHT22;3104;50.348;7.620;2023-06-10T11:26:20;29.60;99.90
6146;DHT22;3104;50.348;7.620;2023-06-10T11:31:23;30.70;99.90
6146;DHT22;3104;50.348;7.620;2023-06-10T11:33:54;30.20;99.90
6146;DHT22;3104;50.348;7.620;2023-06-10T11:36:20;29.40;99.90
6146;DHT22;3104;50.348;7.620;2023-06-10T11:38:45;29.20;99.90
6146;DHT22;3104;50.348;7.620;2023-06-10T11:41:11;30.10;99.90
6146;DHT22;3104;50.348;7.620;2023-06-10T11:43:42;30.10;99.90
6146;DHT22;3104;50.348;7.620;2023-06-10T11:46:08;30.20;99.90
6146;DHT22;3104;50.348;7.620;2023-06-10T11:48:34;30.10;99.90
6146;DHT22;3104;50.348;7.620;2023-06-10T11:50:59;30.00;99.90
6146;DHT22;3104;50.348;7.620;2023-06-10T11:53:25;29.50;99.90
6146;DHT22;3104;50.348;7.620;2023-06-10T11:55:51;29.40;99.90
6146;DHT22;3104;50.348;7.620;2023-06-10T11:58:18;29.80;99.90
6146;DHT22;3104;50.348;7.620;2023-06-10T12:00:48;30.10;99.90
6146;DHT22;3104;50.348;7.620;2023-06-10T12:03:14;30.60;99.90
6146;DHT22;3104;50.348;7.620;2023-06-10T12:05:40;30.30;99.90
6146;DHT22;3104;50.348;7.620;2023-06-10T12:08:12;30.40;99.90
6146;DHT22;3104;50.348;7.620;2023-06-10T12:10:41;30.30;99.90
6146;DHT22;3104;50.348;7.620;2023-06-10T12:13:10;30.50;99.90
6146;DHT22;3104;50.348;7.620;2023-06-10T12:15:36;30.20;99.90
6146;DHT22;3104;50.348;7.620;2023-06-10T12:18:02;31.00;99.90
6146;DHT22;3104;50.348;7.620;2023-06-10T12:20:32;31.30;99.90
6146;DHT22;3104;50.348;7.620;2023-06-10T12:22:59;31.00;99.90
6146;DHT22;3104;50.348;7.620;2023-06-10T12:25:29;31.50;99.90
6146;DHT22;3104;50.348;7.620;2023-06-10T12:27:58;31.40;99.90
6146;DHT22;3104;50.348;7.620;2023-06-10T12:30:25;30.70;99.90
6146;DHT22;3104;50.348;7.620;2023-06-10T12:32:52;30.60;99.90
6146;DHT22;3104;50.348;7.620;2023-06-10T12:35:20;30.10;99.90
6146;DHT22;3104;50.348;7.620;2023-06-10T12:40:29;29.10;99.90
6146;DHT22;3104;50.348;7.620;2023-06-10T12:42:56;29.60;99.90
6146;DHT22;3104;50.348;7.620;2023-06-10T12:45:32;29.80;99.90
6146;DHT22;3104;50.348;7.620;2023-06-10T12:48:09;29.90;99.90
6146;DHT22;3104;50.348;7.620;2023-06-10T12:50:36;30.80;99.90
6146;DHT22;3104;50.348;7.620;2023-06-10T12:53:05;30.10;99.90
6146;DHT22;3104;50.348;7.620;2023-06-10T12:55:31;30.10;99.90
6146;DHT22;3104;50.348;7.620;2023-06-10T12:57:58;30.10;99.90
6146;DHT22;3104;50.348;7.620;2023-06-10T13:00:24;30.20;99.90
6146;DHT22;3104;50.348;7.620;2023-06-10T13:02:55;30.20;99.90
6146;DHT22;3104;50.348;7.620;2023-06-10T13:05:21;30.60;99.90
6146;DHT22;3104;50.348;7.620;2023-06-10T13:07:47;30.60;99.90
6146;DHT22;3104;50.348;7.620;2023-06-10T13:10:14;30.30;99.90
6146;DHT22;3104;50.348;7.620;2023-06-10T13:12:39;29.70;99.90
6146;DHT22;3104;50.348;7.620;2023-06-10T13:15:05;30.10;99.90
6146;DHT22;3104;50.348;7.620;2023-06-10T13:17:31;30.30;99.90
6146;DHT22;3104;50.348;7.620;2023-06-10T13:19:59;29.90;99.90
6146;DHT22;3104;50.348;7.620;2023-06-10T13:22:26;29.70;99.90
6146;DHT22;3104;50.348;7.620;2023-06-10T13:24:52;29.70;99.90
6146;DHT22;3104;50.348;7.620;2023-06-10T13:27:17;29.70;99.90
6146;DHT22;3104;50.348;7.620;2023-06-10T13:29:43;29.90;99.90
6146;DHT22;3104;50.348;7.620;2023-06-10T13:32:09;29.90;99.90
6146;DHT22;3104;50.348;7.620;2023-06-10T13:34:35;29.80;99.90
6146;DHT22;3104;50.348;7.620;2023-06-10T13:37:01;29.90;99.90
6146;DHT22;3104;50.348;7.620;2023-06-10T13:39:29;29.40;99.90
6146;DHT22;3104;50.348;7.620;2023-06-10T13:41:54;29.90;99.90
6146;DHT22;3104;50.348;7.620;2023-06-10T13:44:20;29.70;99.90
6146;DHT22;3104;50.348;7.620;2023-06-10T13:46:46;29.00;99.90
6146;DHT22;3104;50.348;7.620;2023-06-10T13:49:11;28.70;99.90
6146;DHT22;3104;50.348;7.620;2023-06-10T13:51:37;29.30;99.90
6146;DHT22;3104;50.348;7.620;2023-06-10T13:54:03;29.80;99.90
6146;DHT22;3104;50.348;7.620;2023-06-10T13:56:28;30.00;99.90
6146;DHT22;3104;50.348;7.620;2023-06-10T13:58:54;29.70;99.90
6146;DHT22;3104;50.348;7.620;2023-06-10T14:01:20;29.70;99.90
6146;DHT22;3104;50.348;7.620;2023-06-10T14:03:45;29.90;99.90
6146;DHT22;3104;50.348;7.620;2023-06-10T14:06:11;30.30;99.90
6146;DHT22;3104;50.348;7.620;2023-06-10T14:08:40;30.10;99.90
6146;DHT22;3104;50.348;7.620;2023-06-10T14:11:06;30.30;99.90
6146;DHT22;3104;50.348;7.620;2023-06-10T14:13:31;30.10;99.90
6146;DHT22;3104;50.348;7.620;2023-06-10T14:15:59;29.70;99.90
6146;DHT22;3104;50.348;7.620;2023-06-10T14:18:28;30.30;99.90
6146;DHT22;3104;50.348;7.620;2023-06-10T14:20:53;30.10;99.90
6146;DHT22;3104;50.348;7.620;2023-06-10T14:23:19;30.20;99.90
6146;DHT22;3104;50.348;7.620;2023-06-10T14:25:45;29.90;99.90
6146;DHT22;3104;50.348;7.620;2023-06-10T14:28:10;30.00;99.90
6146;DHT22;3104;50.348;7.620;2023-06-10T14:30:36;30.10;99.90
6146;DHT22;3104;50.348;7.620;2023-06-10T14:33:01;30.30;99.90
6146;DHT22;3104;50.348;7.620;2023-06-10T14:35:27;30.20;99.90
6146;DHT22;3104;50.348;7.620;2023-06-10T14:37:53;29.90;99.90
6146;DHT22;3104;50.348;7.620;2023-06-10T14:40:19;30.00;99.90
6146;DHT22;3104;50.348;7.620;2023-06-10T14:42:46;30.00;99.90
6146;DHT22;3104;50.348;7.620;2023-06-10T14:45:12;29.90;99.90
6146;DHT22;3104;50.348;7.620;2023-06-10T14:47:37;30.00;99.90
6146;DHT22;3104;50.348;7.620;2023-06-10T14:50:03;30.10;99.90
6146;DHT22;3104;50.348;7.620;2023-06-10T14:52:29;30.20;99.90
6146;DHT22;3104;50.348;7.620;2023-06-10T14:54:54;30.40;99.90
6146;DHT22;3104;50.348;7.620;2023-06-10T14:57:20;30.20;99.90
6146;DHT22;3104;50.348;7.620;2023-06-10T14:59:46;30.40;99.90
6146;DHT22;3104;50.348;7.620;2023-06-10T15:02:11;30.50;99.90
6146;DHT22;3104;50.348;7.620;2023-06-10T15:04:37;30.60;99.90
6146;DHT22;3104;50.348;7.620;2023-06-10T15:07:03;30.70;99.90
6146;DHT22;3104;50.348;7.620;2023-06-10T15:09:28;30.30;99.90
6146;DHT22;3104;50.348;7.620;2023-06-10T15:11:54;30.40;99.90
6146;DHT22;3104;50.348;7.620;2023-06-10T15:14:20;30.20;99.90
6146;DHT22;3104;50.348;7.620;2023-06-10T15:16:45;30.20;99.90
6146;DHT22;3104;50.348;7.620;2023-06-10T15:19:11;30.40;99.90
6146;DHT22;3104;50.348;7.620;2023-06-10T15:21:37;30.60;99.90
6146;DHT22;3104;50.348;7.620;2023-06-10T15:24:03;30.00;99.90
6146;DHT22;3104;50.348;7.620;2023-06-10T15:26:29;30.20;99.90
6146;DHT22;3104;50.348;7.620;2023-06-10T15:28:54;30.10;99.90
6146;DHT22;3104;50.348;7.620;2023-06-10T15:31:20;29.80;99.90
6146;DHT22;3104;50.348;7.620;2023-06-10T15:33:46;29.90;99.90
6146;DHT22;3104;50.348;7.620;2023-06-10T15:36:11;30.20;99.90
6146;DHT22;3104;50.348;7.620;2023-06-10T15:38:39;30.10;99.90
6146;DHT22;3104;50.348;7.620;2023-06-10T15:41:04;30.10;99.90
6146;DHT22;3104;50.348;7.620;2023-06-10T15:43:30;30.10;99.90
6146;DHT22;3104;50.348;7.620;2023-06-10T15:45:55;29.90;99.90
6146;DHT22;3104;50.348;7.620;2023-06-10T15:48:21;29.30;99.90
6146;DHT22;3104;50.348;7.620;2023-06-10T15:50:46;29.50;99.90
6146;DHT22;3104;50.348;7.620;2023-06-10T15:53:12;30.10;99.90
6146;DHT22;3104;50.348;7.620;2023-06-10T15:55:38;30.40;99.90
6146;DHT22;3104;50.348;7.620;2023-06-10T15:58:03;30.40;99.90
6146;DHT22;3104;50.348;7.620;2023-06-10T16:00:29;30.20;99.90
6146;DHT22;3104;50.348;7.620;2023-06-10T16:02:55;30.20;99.90
6146;DHT22;3104;50.348;7.620;2023-06-10T16:05:20;29.90;99.90
6146;DHT22;3104;50.348;7.620;2023-06-10T16:07:46;29.90;99.90
6146;DHT22;3104;50.348;7.620;2023-06-10T16:10:12;29.80;99.90
6146;DHT22;3104;50.348;7.620;2023-06-10T16:12:37;30.10;99.90
6146;DHT22;3104;50.348;7.620;2023-06-10T16:15:03;29.70;99.90
6146;DHT22;3104;50.348;7.620;2023-06-10T16:17:29;29.60;99.90
6146;DHT22;3104;50.348;7.620;2023-06-10T16:19:54;29.90;99.90
6146;DHT22;3104;50.348;7.620;2023-06-10T16:22:20;30.40;99.90
6146;DHT22;3104;50.348;7.620;2023-06-10T16:24:46;29.50;99.90
6146;DHT22;3104;50.348;7.620;2023-06-10T16:27:11;29.30;99.90
6146;DHT22;3104;50.348;7.620;2023-06-10T16:29:37;29.40;99.90